createdAt,value
2019-01-12T00:01:50.542Z,12.03
2019-01-12T00:03:51.191Z,12.47
2019-01-12T00:05:53.141Z,12.57
2019-01-12T00:07:54.080Z,12.07
2019-01-12T00:09:54.805Z,9.70
2019-01-12T00:11:55.743Z,9.20
2019-01-12T00:13:56.532Z,10.17
2019-01-12T00:15:57.291Z,8.83
2019-01-12T00:17:57.989Z,8.97
2019-01-12T00:19:58.819Z,9.40
2019-01-12T00:21:59.710Z,9.57
2019-01-12T00:24:00.396Z,10.33
2019-01-12T00:26:02.294Z,9.43
2019-01-12T00:28:03.374Z,10.15
2019-01-12T00:30:07.937Z,9.58
2019-01-12T00:32:08.877Z,12.45
2019-01-12T00:34:09.617Z,10.37
2019-01-12T00:36:10.312Z,10.47
2019-01-12T00:38:11.039Z,10.80
2019-01-12T00:40:11.906Z,12.33
2019-01-12T00:42:12.606Z,12.20
2019-01-12T00:44:14.852Z,11.73
2019-01-12T00:46:15.788Z,12.95
2019-01-12T00:48:16.528Z,12.10
2019-01-12T00:50:17.400Z,11.43
2019-01-12T00:52:19.248Z,12.07
2019-01-12T00:54:19.870Z,12.18
2019-01-12T00:56:20.640Z,11.00
2019-01-12T00:58:21.655Z,11.50
2019-01-12T01:00:22.853Z,12.10
2019-01-12T01:02:23.770Z,11.97
2019-01-12T01:04:25.086Z,12.30
2019-01-12T01:06:25.767Z,11.48
2019-01-12T01:08:26.768Z,13.50
2019-01-12T01:10:27.725Z,11.50
2019-01-12T01:12:29.860Z,11.97
2019-01-12T01:14:30.769Z,9.48
2019-01-12T01:16:31.488Z,9.63
2019-01-12T01:18:32.195Z,10.77
2019-01-12T01:20:33.164Z,10.40
2019-01-12T01:22:33.880Z,10.70
2019-01-12T01:24:34.846Z,9.67
2019-01-12T01:26:35.544Z,9.60
2019-01-12T01:28:36.559Z,9.97
2019-01-12T01:30:38.181Z,7.95
2019-01-12T01:32:38.840Z,8.35
2019-01-12T01:34:39.597Z,8.97
2019-01-12T01:36:41.323Z,8.77
2019-01-12T01:38:42.064Z,8.10
2019-01-12T01:40:42.825Z,7.70
2019-01-12T01:42:43.808Z,6.70
2019-01-12T01:44:44.422Z,7.08
2019-01-12T01:46:46.114Z,7.97
2019-01-12T01:48:46.860Z,6.72
2019-01-12T01:50:47.607Z,7.73
2019-01-12T01:52:48.611Z,6.97
2019-01-12T01:54:53.073Z,7.10
2019-01-12T01:56:51.746Z,6.33
2019-01-12T01:58:52.681Z,6.60
2019-01-12T02:00:53.637Z,5.53
2019-01-12T02:02:54.310Z,6.10
2019-01-12T02:04:54.956Z,5.20
2019-01-12T02:06:55.677Z,5.33
2019-01-12T02:08:56.386Z,5.00
2019-01-12T02:10:57.060Z,4.63
2019-01-12T02:12:57.752Z,4.13
2019-01-12T02:14:58.384Z,4.93
2019-01-12T02:16:59.145Z,3.50
2019-01-12T02:18:59.751Z,3.80
2019-01-12T02:21:00.472Z,4.57
2019-01-12T02:23:01.261Z,3.63
2019-01-12T02:25:04.279Z,3.77
2019-01-12T02:27:04.948Z,3.02
2019-01-12T02:29:05.703Z,3.03
2019-01-12T02:31:06.652Z,3.37
2019-01-12T02:33:07.297Z,4.03
2019-01-12T02:35:07.986Z,4.93
2019-01-12T02:37:08.671Z,4.53
2019-01-12T02:39:10.844Z,3.57
2019-01-12T02:41:11.823Z,3.90
2019-01-12T02:43:12.503Z,3.42
2019-01-12T02:45:13.235Z,3.83
2019-01-12T02:47:14.264Z,4.73
2019-01-12T02:49:15.029Z,3.10
2019-01-12T02:51:15.661Z,2.43
2019-01-12T02:53:16.333Z,2.93
2019-01-12T02:55:19.056Z,2.87
2019-01-12T02:57:21.967Z,2.75
2019-01-12T02:59:22.894Z,3.98
2019-01-12T03:01:26.799Z,4.70
2019-01-12T03:03:27.411Z,3.67
2019-01-12T03:05:28.276Z,3.73
2019-01-12T03:07:28.965Z,3.57
2019-01-12T03:09:29.676Z,3.70
2019-01-12T03:11:30.839Z,3.07
2019-01-12T03:13:31.831Z,3.58
2019-01-12T03:15:32.495Z,3.20
2019-01-12T03:17:33.527Z,2.70
2019-01-12T03:19:35.535Z,3.60
2019-01-12T03:21:37.781Z,2.98
2019-01-12T03:23:38.764Z,3.25
2019-01-12T03:25:40.622Z,3.90
2019-01-12T03:27:43.189Z,3.80
2019-01-12T03:29:43.974Z,4.15
2019-01-12T03:31:46.157Z,4.00
2019-01-12T03:33:46.906Z,3.83
2019-01-12T03:35:51.735Z,4.63
2019-01-12T03:37:52.549Z,4.90
2019-01-12T03:39:54.328Z,5.07
2019-01-12T03:41:55.099Z,4.67
2019-01-12T03:43:57.277Z,5.60
2019-01-12T03:45:58.367Z,6.08
2019-01-12T03:47:59.228Z,5.55
2019-01-12T03:49:59.918Z,6.80
2019-01-12T03:52:00.592Z,7.10
2019-01-12T03:54:02.538Z,6.90
2019-01-12T03:56:04.385Z,7.10
2019-01-12T03:58:05.263Z,7.20
2019-01-12T04:00:14.728Z,6.90
2019-01-12T04:02:15.468Z,6.55
2019-01-12T04:04:16.182Z,7.20
2019-01-12T04:06:17.924Z,7.30
2019-01-12T04:08:18.675Z,7.85
2019-01-12T04:10:19.358Z,6.90
2019-01-12T04:12:20.169Z,7.83
2019-01-12T04:14:21.985Z,7.70
2019-01-12T04:16:22.693Z,7.20
2019-01-12T04:18:23.366Z,6.23
2019-01-12T04:20:24.273Z,6.80
2019-01-12T04:22:25.237Z,5.73
2019-01-12T04:24:26.110Z,5.43
2019-01-12T04:26:26.841Z,6.10
2019-01-12T04:28:27.815Z,6.40
2019-01-12T04:30:28.531Z,6.60
2019-01-12T04:32:29.470Z,5.53
2019-01-12T04:34:30.411Z,6.13
2019-01-12T04:36:31.363Z,6.83
2019-01-12T04:38:32.007Z,6.20
2019-01-12T04:40:32.678Z,6.53
2019-01-12T04:42:33.556Z,6.23
2019-01-12T04:44:34.312Z,6.50
2019-01-12T04:46:34.980Z,6.47
2019-01-12T04:48:35.957Z,6.30
2019-01-12T04:50:36.638Z,5.83
2019-01-12T04:52:37.351Z,5.97
2019-01-12T04:54:38.275Z,5.27
2019-01-12T04:56:39.184Z,4.43
2019-01-12T04:58:39.875Z,3.63
2019-01-12T05:00:40.627Z,3.93
2019-01-12T05:02:41.613Z,3.23
2019-01-12T05:04:42.505Z,2.62
2019-01-12T05:06:43.435Z,3.03
2019-01-12T05:08:44.311Z,2.87
2019-01-12T05:10:44.935Z,3.13
2019-01-12T05:12:45.714Z,2.83
2019-01-12T05:14:46.683Z,3.03
2019-01-12T05:16:47.607Z,3.53
2019-01-12T05:18:48.338Z,3.63
2019-01-12T05:20:49.348Z,3.80
2019-01-12T05:22:50.253Z,3.23
2019-01-12T05:24:51.363Z,4.13
2019-01-12T05:26:53.739Z,4.05
2019-01-12T05:28:54.902Z,3.80
2019-01-12T05:30:55.698Z,3.65
2019-01-12T05:32:56.953Z,3.07
2019-01-12T05:34:58.161Z,3.10
2019-01-12T05:36:59.153Z,3.70
2019-01-12T05:39:00.205Z,3.60
2019-01-12T05:41:02.922Z,3.33
2019-01-12T05:43:04.094Z,3.95
2019-01-12T05:45:06.928Z,4.62
2019-01-12T05:47:07.664Z,4.17
2019-01-12T05:49:08.562Z,4.50
2019-01-12T05:51:09.245Z,3.13
2019-01-12T05:53:09.946Z,4.40
2019-01-12T05:55:11.179Z,3.63
2019-01-12T05:57:12.511Z,4.00
2019-01-12T05:59:13.410Z,4.80
2019-01-12T06:01:14.564Z,4.90
2019-01-12T06:03:16.471Z,4.70
2019-01-12T06:05:17.526Z,4.40
2019-01-12T06:07:18.499Z,4.20
2019-01-12T06:09:19.447Z,4.33
2019-01-12T06:11:20.103Z,3.67
2019-01-12T06:13:20.776Z,4.10
2019-01-12T06:15:21.500Z,4.53
2019-01-12T06:17:23.363Z,4.30
2019-01-12T06:19:24.288Z,4.25
2019-01-12T06:21:25.220Z,3.97
2019-01-12T06:23:25.907Z,4.00
2019-01-12T06:25:26.609Z,3.30
2019-01-12T06:27:27.502Z,2.83
2019-01-12T06:29:28.516Z,2.90
2019-01-12T06:31:29.241Z,3.80
2019-01-12T06:33:30.174Z,4.03
2019-01-12T06:35:31.839Z,3.37
2019-01-12T06:37:32.867Z,3.20
2019-01-12T06:39:33.942Z,3.05
2019-01-12T06:41:35.747Z,2.62
2019-01-12T06:43:36.567Z,2.20
2019-01-12T06:45:37.205Z,3.10
2019-01-12T06:47:38.085Z,2.67
2019-01-12T06:49:39.107Z,2.50
2019-01-12T06:51:39.878Z,2.58
2019-01-12T06:53:40.693Z,2.37
2019-01-12T06:55:42.310Z,2.50
2019-01-12T06:57:44.860Z,2.50
2019-01-12T06:59:45.536Z,2.77
2019-01-12T07:01:46.437Z,3.00
2019-01-12T07:03:49.201Z,2.03
2019-01-12T07:05:53.915Z,2.15
2019-01-12T07:07:54.642Z,2.33
2019-01-12T07:09:55.344Z,1.90
2019-01-12T07:11:56.454Z,2.60
2019-01-12T07:13:57.674Z,2.40
2019-01-12T07:15:58.829Z,1.80
2019-01-12T07:17:59.712Z,2.30
2019-01-12T07:20:00.539Z,2.23
2019-01-12T07:22:14.586Z,2.67
2019-01-12T07:24:06.686Z,2.33
2019-01-12T07:26:08.937Z,2.63
2019-01-12T07:28:09.706Z,2.55
2019-01-12T07:30:17.007Z,2.90
2019-01-12T07:32:18.029Z,2.17
2019-01-12T07:34:18.754Z,2.20
2019-01-12T07:36:25.633Z,2.03
2019-01-12T07:38:26.571Z,2.40
2019-01-12T07:40:36.358Z,2.33
2019-01-12T07:42:37.007Z,1.70
2019-01-12T07:44:37.786Z,2.20
2019-01-12T07:46:38.731Z,2.27
2019-01-12T07:48:39.440Z,2.50
2019-01-12T07:50:40.167Z,1.80
2019-01-12T07:52:41.882Z,1.97
2019-01-12T07:54:43.792Z,3.02
2019-01-12T07:56:44.594Z,2.27
2019-01-12T07:58:45.222Z,2.20
2019-01-12T08:00:46.284Z,1.80
2019-01-12T08:02:47.600Z,1.95
2019-01-12T08:04:48.658Z,2.00
2019-01-12T08:06:49.301Z,1.75
2019-01-12T08:08:50.039Z,2.40
2019-01-12T08:10:50.868Z,1.60
2019-01-12T08:12:51.958Z,2.43
2019-01-12T08:14:52.785Z,2.05
2019-01-12T08:16:53.658Z,2.37
2019-01-12T08:18:55.634Z,2.33
2019-01-12T08:20:56.748Z,2.60
2019-01-12T08:22:57.524Z,1.87
2019-01-12T08:24:58.512Z,2.80
2019-01-12T08:26:59.446Z,2.42
2019-01-12T08:29:00.277Z,2.00
2019-01-12T08:31:00.971Z,2.00
2019-01-12T08:33:01.936Z,1.80
2019-01-12T08:35:04.431Z,2.10
2019-01-12T08:37:05.434Z,2.50
2019-01-12T08:39:06.451Z,2.20
2019-01-12T08:41:08.149Z,2.05
2019-01-12T08:43:08.855Z,2.22
2019-01-12T08:45:10.110Z,2.07
2019-01-12T08:47:10.829Z,1.95
2019-01-12T08:49:11.796Z,2.37
2019-01-12T08:51:12.759Z,2.27
2019-01-12T08:53:13.660Z,2.23
2019-01-12T08:55:14.599Z,1.37
2019-01-12T08:57:15.588Z,1.60
2019-01-12T08:59:16.578Z,1.90
2019-01-12T09:01:17.503Z,1.52
2019-01-12T09:03:18.507Z,2.07
2019-01-12T09:05:20.184Z,1.70
2019-01-12T09:07:20.797Z,1.60
2019-01-12T09:09:21.769Z,1.53
2019-01-12T09:11:22.464Z,2.00
2019-01-12T09:13:23.207Z,1.57
2019-01-12T09:15:24.215Z,1.70
2019-01-12T09:17:24.942Z,1.27
2019-01-12T09:19:26.156Z,1.43
2019-01-12T09:21:26.940Z,1.30
2019-01-12T09:23:27.642Z,1.77
2019-01-12T09:25:28.363Z,1.80
2019-01-12T09:27:29.300Z,2.07
2019-01-12T09:29:30.046Z,1.97
2019-01-12T09:31:30.803Z,1.33
2019-01-12T09:33:31.802Z,1.57
2019-01-12T09:35:32.505Z,1.95
2019-01-12T09:37:33.462Z,2.10
2019-01-12T09:39:35.725Z,2.35
2019-01-12T09:41:36.818Z,2.65
2019-01-12T09:43:37.827Z,2.90
2019-01-12T09:45:38.830Z,2.45
2019-01-12T09:47:40.117Z,3.03
2019-01-12T09:49:41.208Z,2.33
2019-01-12T09:51:41.984Z,2.55
2019-01-12T09:53:42.748Z,3.20
2019-01-12T09:55:43.347Z,2.70
2019-01-12T09:57:44.108Z,3.20
2019-01-12T09:59:44.829Z,3.20
2019-01-12T10:01:45.464Z,3.20
2019-01-12T10:03:46.238Z,3.60
2019-01-12T10:05:46.982Z,3.17
2019-01-12T10:07:47.872Z,3.70
2019-01-12T10:09:48.832Z,3.13
2019-01-12T10:11:51.041Z,4.80
2019-01-12T10:13:51.794Z,4.35
2019-01-12T10:15:52.944Z,3.53
2019-01-12T10:17:53.784Z,4.22
2019-01-12T10:19:54.629Z,5.17
2019-01-12T10:21:55.576Z,5.20
2019-01-12T10:23:57.806Z,4.50
2019-01-12T10:25:58.851Z,3.67
2019-01-12T10:28:04.184Z,4.87
2019-01-12T10:30:10.187Z,4.65
2019-01-12T10:32:11.107Z,4.97
2019-01-12T10:34:13.395Z,6.03
2019-01-12T10:36:23.448Z,4.33
2019-01-12T10:38:24.198Z,5.37
2019-01-12T10:40:30.929Z,5.00
2019-01-12T10:42:31.859Z,6.62
2019-01-12T10:44:40.660Z,5.40
2019-01-12T10:46:42.382Z,5.65
2019-01-12T10:48:46.391Z,5.85
2019-01-12T10:50:47.095Z,6.00
2019-01-12T10:52:54.808Z,6.60
2019-01-12T10:54:55.852Z,6.90
2019-01-12T10:56:56.936Z,7.12
2019-01-12T10:58:57.637Z,8.58
2019-01-12T11:00:58.561Z,7.27
2019-01-12T11:03:00.272Z,8.00
2019-01-12T11:05:01.180Z,8.35
2019-01-12T11:07:02.783Z,9.20
2019-01-12T11:09:05.864Z,8.50
2019-01-12T11:11:06.604Z,9.35
2019-01-12T11:13:14.069Z,8.37
2019-01-12T11:15:19.467Z,7.78
2019-01-12T11:17:29.187Z,8.18
2019-01-12T11:19:32.076Z,7.90
2019-01-12T11:21:34.971Z,9.08
2019-01-12T11:23:35.803Z,7.85
2019-01-12T11:25:43.084Z,9.20
2019-01-12T11:27:42.351Z,9.10
2019-01-12T11:29:45.003Z,9.77
2019-01-12T11:31:45.752Z,9.35
2019-01-12T11:33:46.726Z,8.87
2019-01-12T11:35:47.671Z,9.03
2019-01-12T11:37:48.513Z,7.67
2019-01-12T11:39:49.480Z,8.00
2019-01-12T11:41:50.191Z,9.83
2019-01-12T11:43:51.093Z,8.63
2019-01-12T11:45:51.773Z,8.27
2019-01-12T11:47:52.811Z,8.47
2019-01-12T11:49:54.746Z,8.15
2019-01-12T11:51:55.409Z,8.28
2019-01-12T11:53:56.078Z,9.17
2019-01-12T11:55:56.776Z,8.93
2019-01-12T11:57:58.504Z,8.63
2019-01-12T11:59:59.554Z,8.23
2019-01-12T12:02:00.516Z,8.75
2019-01-12T12:04:02.741Z,7.03
2019-01-12T12:06:03.828Z,9.33
2019-01-12T12:08:04.622Z,9.28
2019-01-12T12:10:08.900Z,7.57
2019-01-12T12:12:09.605Z,9.48
2019-01-12T12:14:10.378Z,8.10
2019-01-12T12:16:11.341Z,9.43
2019-01-12T12:18:12.105Z,10.50
2019-01-12T12:20:19.027Z,10.20
2019-01-12T12:22:19.667Z,8.93
2019-01-12T12:24:20.458Z,10.43
2019-01-12T12:26:25.764Z,8.13
2019-01-12T12:28:27.779Z,9.03
2019-01-12T12:30:29.691Z,8.60
2019-01-12T12:32:31.421Z,7.45
2019-01-12T12:34:32.155Z,10.63
2019-01-12T12:36:33.894Z,10.17
2019-01-12T12:38:35.563Z,8.93
2019-01-12T12:40:36.276Z,10.03
2019-01-12T12:42:37.021Z,10.47
2019-01-12T12:44:38.013Z,9.13
2019-01-12T12:46:38.691Z,10.98
2019-01-12T12:48:39.704Z,10.40
2019-01-12T12:50:40.614Z,9.90
2019-01-12T12:52:41.311Z,10.17
2019-01-12T12:54:42.265Z,11.57
2019-01-12T12:56:42.936Z,10.20
2019-01-12T12:58:45.697Z,9.67
2019-01-12T13:00:46.199Z,8.93
2019-01-12T13:02:46.869Z,11.50
2019-01-12T13:04:47.925Z,9.00
2019-01-12T13:06:48.968Z,10.25
2019-01-12T13:08:49.641Z,10.95
2019-01-12T13:10:50.316Z,11.10
2019-01-12T13:12:53.212Z,11.53
2019-01-12T13:14:56.244Z,11.33
2019-01-12T13:16:59.233Z,11.35
2019-01-12T13:19:00.084Z,11.55
2019-01-12T13:21:01.287Z,8.67
2019-01-12T13:23:02.242Z,9.83
2019-01-12T13:25:04.782Z,12.10
2019-01-12T13:27:05.771Z,11.95
2019-01-12T13:29:06.742Z,10.17
2019-01-12T13:31:08.882Z,11.70
2019-01-12T13:33:09.716Z,12.28
2019-01-12T13:35:15.012Z,9.23
2019-01-12T13:37:15.791Z,12.50
2019-01-12T13:39:17.683Z,10.60
2019-01-12T13:41:18.698Z,11.25
2019-01-12T13:43:21.867Z,12.30
2019-01-12T13:45:24.946Z,12.05
2019-01-12T13:47:25.801Z,12.40
2019-01-12T13:49:26.437Z,11.30
2019-01-12T13:51:27.449Z,12.97
2019-01-12T13:53:28.355Z,13.10
2019-01-12T13:55:29.282Z,12.23
2019-01-12T13:57:30.199Z,11.27
2019-01-12T13:59:31.198Z,12.20
2019-01-12T14:01:31.864Z,11.85
2019-01-12T14:03:32.548Z,11.57
2019-01-12T14:05:33.460Z,11.77
2019-01-12T14:07:34.437Z,11.70
2019-01-12T14:09:37.543Z,10.23
2019-01-12T14:11:47.134Z,10.10
2019-01-12T14:13:47.871Z,13.20
2019-01-12T14:15:48.746Z,13.67
2019-01-12T14:17:49.549Z,11.60
2019-01-12T14:19:50.821Z,11.93
2019-01-12T14:21:51.835Z,11.60
2019-01-12T14:23:52.804Z,14.07
2019-01-12T14:25:53.536Z,11.37
2019-01-12T14:27:55.121Z,13.67
2019-01-12T14:29:58.217Z,13.72
2019-01-12T14:32:00.627Z,12.15
2019-01-12T14:34:01.661Z,12.53
2019-01-12T14:36:02.601Z,12.55
2019-01-12T14:38:03.567Z,13.20
2019-01-12T14:40:07.625Z,10.50
2019-01-12T14:42:18.727Z,11.08
2019-01-12T14:44:11.074Z,11.25
2019-01-12T14:46:14.521Z,10.53
2019-01-12T14:48:15.665Z,10.68
2019-01-12T14:50:16.628Z,9.08
2019-01-12T14:52:17.304Z,10.60
2019-01-12T14:54:18.433Z,9.63
2019-01-12T14:56:19.476Z,10.30
2019-01-12T14:58:20.527Z,10.03
2019-01-12T15:00:25.365Z,9.55
2019-01-12T15:02:26.542Z,9.63
2019-01-12T15:04:27.552Z,7.70
2019-01-12T15:06:28.385Z,10.98
2019-01-12T15:08:29.181Z,8.97
2019-01-12T15:10:30.395Z,8.93
2019-01-12T15:12:31.178Z,7.62
2019-01-12T15:14:31.977Z,8.20
2019-01-12T15:16:32.765Z,7.57
2019-01-12T15:18:33.504Z,7.77
2019-01-12T15:20:34.305Z,8.50
2019-01-12T15:22:35.179Z,6.97
2019-01-12T15:24:36.929Z,7.17
2019-01-12T15:26:38.052Z,6.35
2019-01-12T15:28:39.995Z,6.62
2019-01-12T15:30:42.161Z,6.25
2019-01-12T15:32:45.360Z,7.58
2019-01-12T15:34:48.093Z,6.55
2019-01-12T15:36:49.847Z,6.42
2019-01-12T15:38:56.384Z,6.87
2019-01-12T15:40:57.243Z,6.15
2019-01-12T15:42:58.162Z,6.93
2019-01-12T15:44:58.924Z,4.90
2019-01-12T15:47:01.652Z,5.33
2019-01-12T15:49:02.573Z,4.62
2019-01-12T15:51:03.521Z,5.57
2019-01-12T15:53:04.396Z,5.33
2019-01-12T15:55:05.187Z,6.27
2019-01-12T15:57:06.409Z,5.60
2019-01-12T15:59:07.603Z,5.72
2019-01-12T16:01:08.536Z,5.90
2019-01-12T16:03:09.652Z,5.27
2019-01-12T16:05:10.752Z,6.08
2019-01-12T16:07:13.735Z,5.08
2019-01-12T16:09:14.686Z,6.70
2019-01-12T16:11:16.280Z,5.70
2019-01-12T16:13:17.503Z,6.35
2019-01-12T16:15:20.809Z,5.78
2019-01-12T16:17:21.882Z,6.35
2019-01-12T16:19:22.889Z,4.95
2019-01-12T16:21:24.112Z,4.97
2019-01-12T16:23:25.194Z,4.90
2019-01-12T16:25:27.069Z,4.50
2019-01-12T16:27:27.752Z,4.75
2019-01-12T16:29:28.462Z,4.60
2019-01-12T16:31:29.429Z,3.90
2019-01-12T16:33:30.391Z,2.97
2019-01-12T16:35:31.288Z,4.50
2019-01-12T16:37:32.086Z,3.77
2019-01-12T16:39:32.847Z,3.67
2019-01-12T16:41:33.682Z,3.20
2019-01-12T16:43:34.679Z,2.87
2019-01-12T16:45:36.453Z,3.25
2019-01-12T16:47:37.455Z,2.30
2019-01-12T16:49:38.390Z,2.83
2019-01-12T16:51:39.542Z,3.77
2019-01-12T16:53:40.316Z,2.87
2019-01-12T16:55:42.018Z,2.67
2019-01-12T16:57:43.009Z,3.05
2019-01-12T16:59:44.598Z,3.47
2019-01-12T17:01:45.339Z,2.02
2019-01-12T17:03:46.035Z,1.90
2019-01-12T17:05:46.949Z,2.10
2019-01-12T17:07:47.912Z,1.90
2019-01-12T17:09:51.279Z,1.97
2019-01-12T17:11:52.251Z,1.42
2019-01-12T17:13:53.021Z,1.13
2019-01-12T17:16:00.030Z,1.10
2019-01-12T17:18:00.815Z,1.02
2019-01-12T17:20:02.554Z,1.40
2019-01-12T17:22:07.527Z,1.57
2019-01-12T17:24:10.802Z,1.50
2019-01-12T17:26:11.670Z,1.05
2019-01-12T17:28:12.660Z,1.00
2019-01-12T17:33:10.346Z,1.40
2019-01-12T17:35:11.848Z,1.22
2019-01-12T17:37:12.778Z,1.67
2019-01-12T17:39:15.674Z,1.40
2019-01-12T17:41:16.396Z,1.30
2019-01-12T17:43:17.453Z,1.60
2019-01-12T17:45:20.273Z,1.12
2019-01-12T17:47:20.934Z,1.35
2019-01-12T17:49:21.685Z,1.37
2019-01-12T17:51:22.466Z,1.60
2019-01-12T17:53:23.788Z,1.43
2019-01-12T17:55:24.695Z,1.40
2019-01-12T17:57:25.386Z,1.30
2019-01-12T17:59:26.887Z,1.20
2019-01-12T18:01:27.701Z,1.00
2019-01-12T18:03:30.100Z,0.80
2019-01-12T18:05:31.134Z,0.90
2019-01-12T18:07:32.437Z,1.42
2019-01-12T18:09:33.539Z,0.90
2019-01-12T18:11:34.409Z,1.47
2019-01-12T18:13:35.666Z,1.10
2019-01-12T18:15:36.523Z,1.40
2019-01-12T18:17:40.206Z,1.40
2019-01-12T18:19:42.434Z,1.52
2019-01-12T18:21:44.544Z,1.20
2019-01-12T18:23:45.443Z,1.37
2019-01-12T18:25:46.654Z,0.70
2019-01-12T18:27:47.475Z,1.17
2019-01-12T18:29:48.539Z,1.40
2019-01-12T18:31:49.173Z,0.82
2019-01-12T18:33:49.948Z,1.53
2019-01-12T18:35:50.759Z,0.80
2019-01-12T18:37:53.976Z,0.90
2019-01-12T18:39:57.063Z,0.70
2019-01-12T18:42:04.785Z,0.90
2019-01-12T18:44:14.610Z,0.90
2019-01-12T18:46:17.319Z,0.80
2019-01-12T18:48:21.762Z,0.62
2019-01-12T18:51:22.140Z,0.90
2019-01-12T19:18:00.527Z,0.90
2019-01-12T19:20:01.627Z,1.00
2019-01-12T19:22:09.395Z,1.00
2019-01-12T19:24:10.399Z,1.15
2019-01-12T19:26:11.605Z,1.10
2019-01-12T19:28:15.654Z,0.98
2019-01-12T19:30:18.549Z,1.00
2019-01-12T19:32:30.219Z,1.27
2019-01-12T19:34:37.607Z,1.37
2019-01-12T19:36:50.039Z,1.60
2019-01-12T19:39:14.794Z,1.52
2019-01-12T19:41:02.315Z,1.25
2019-01-12T19:43:03.552Z,1.50
2019-01-12T19:45:22.969Z,1.50
2019-01-12T19:47:23.514Z,1.30
2019-01-12T19:49:24.473Z,1.57
2019-01-12T19:51:25.322Z,1.47
2019-01-12T19:53:27.243Z,1.67
2019-01-12T19:55:34.179Z,1.60
2019-01-12T19:57:35.214Z,1.40
2019-01-12T19:59:36.265Z,1.52
2019-01-12T20:01:37.465Z,1.80
2019-01-12T20:03:38.285Z,2.00
2019-01-12T20:05:39.173Z,1.73
2019-01-12T20:07:40.279Z,2.00
2019-01-12T20:09:40.910Z,1.92
2019-01-12T20:11:41.631Z,1.87
2019-01-12T20:13:42.395Z,1.97
2019-01-12T20:15:43.397Z,2.00
2019-01-12T20:17:44.325Z,2.27
2019-01-12T20:19:45.008Z,2.43
2019-01-12T20:21:45.859Z,2.80
2019-01-12T20:23:46.857Z,2.67
2019-01-12T20:25:47.734Z,3.33
2019-01-12T20:27:48.420Z,3.43
2019-01-12T20:29:49.511Z,3.93
2019-01-12T20:32:12.296Z,4.10
2019-01-12T20:34:19.797Z,3.52
2019-01-12T20:36:41.093Z,3.80
2019-01-12T20:39:02.284Z,4.17
2019-01-12T20:41:14.234Z,3.90
2019-01-12T20:43:22.928Z,5.65
2019-01-12T20:45:42.530Z,4.90
2019-01-12T20:47:54.407Z,4.37
2019-01-12T20:50:01.148Z,5.25
2019-01-12T20:52:15.015Z,7.20
2019-01-12T20:54:22.533Z,4.33
2019-01-12T20:56:34.139Z,5.97
2019-01-12T20:58:49.110Z,5.25
2019-01-12T21:01:14.510Z,4.95
2019-01-12T21:03:51.100Z,3.72
2019-01-12T21:06:01.497Z,4.92
2019-01-12T21:08:15.216Z,6.03
2019-01-12T21:10:31.868Z,4.87
2019-01-12T21:12:54.371Z,1.70
2019-01-12T21:14:57.973Z,2.05
2019-01-12T21:16:59.771Z,2.75
2019-01-12T21:19:00.416Z,2.10
2019-01-12T21:21:01.396Z,1.37
2019-01-12T21:23:04.201Z,2.00
2019-01-12T21:25:06.800Z,1.25
2019-01-12T21:27:07.628Z,1.60
2019-01-12T21:29:10.374Z,1.73
2019-01-12T21:31:12.637Z,1.98
2019-01-12T21:33:13.333Z,2.02
2019-01-12T21:35:14.467Z,1.73
2019-01-12T21:37:15.499Z,1.52
2019-01-12T21:39:19.641Z,1.90
2019-01-12T21:41:20.643Z,2.33
2019-01-12T21:43:22.341Z,1.90
2019-01-12T21:45:24.576Z,1.42
2019-01-12T21:47:25.761Z,1.37
2019-01-12T21:49:26.513Z,2.00
2019-01-12T21:51:28.333Z,2.20
2019-01-12T21:53:31.512Z,1.98
2019-01-12T21:55:34.612Z,2.20
2019-01-12T21:57:35.591Z,2.27
2019-01-12T21:59:42.429Z,1.60
2019-01-12T22:01:39.802Z,2.90
2019-01-12T22:03:40.909Z,1.50
2019-01-12T22:05:41.843Z,2.10
2019-01-12T22:07:42.710Z,1.40
2019-01-12T22:09:44.497Z,1.57
2019-01-12T22:11:45.350Z,1.57
2019-01-12T22:13:46.080Z,1.20
2019-01-12T22:15:47.030Z,1.57
2019-01-12T22:17:48.103Z,1.73
2019-01-12T22:19:48.775Z,1.75
2019-01-12T22:21:49.640Z,1.83
2019-01-12T22:23:51.646Z,1.90
2019-01-12T22:25:52.445Z,2.52
2019-01-12T22:27:54.474Z,1.80
2019-01-12T22:29:55.592Z,2.60
2019-01-12T22:31:56.980Z,1.50
2019-01-12T22:33:57.990Z,3.70
2019-01-12T22:35:59.653Z,1.80
2019-01-12T22:38:01.714Z,1.70
2019-01-12T22:40:13.322Z,2.52
2019-01-12T22:42:14.153Z,1.85
2019-01-12T22:44:14.963Z,2.40
2019-01-12T22:46:16.194Z,3.20
2019-01-12T22:48:24.538Z,3.58
2019-01-12T22:50:26.186Z,3.33
2019-01-12T22:52:34.005Z,4.08
2019-01-12T22:54:35.046Z,4.87
2019-01-12T22:56:35.806Z,4.67
2019-01-12T22:58:37.489Z,4.57
2019-01-12T23:00:44.915Z,5.40
2019-01-12T23:02:47.799Z,4.80
2019-01-12T23:04:48.499Z,4.10
2019-01-12T23:06:53.364Z,4.67
2019-01-12T23:08:54.338Z,3.35
2019-01-12T23:10:55.468Z,3.13
2019-01-12T23:12:56.288Z,2.80
2019-01-12T23:14:57.018Z,2.30
2019-01-12T23:16:57.764Z,1.70
2019-01-12T23:18:58.631Z,1.93
2019-01-12T23:20:59.244Z,2.53
2019-01-12T23:23:00.304Z,2.23
2019-01-12T23:25:01.253Z,2.50
2019-01-12T23:27:02.247Z,1.70
2019-01-12T23:29:03.501Z,2.00
2019-01-12T23:31:04.679Z,2.55
2019-01-12T23:33:06.451Z,2.52
2019-01-12T23:35:09.633Z,3.60
2019-01-12T23:37:13.751Z,3.30
2019-01-12T23:39:22.973Z,3.75
2019-01-12T23:41:24.194Z,3.17
2019-01-12T23:43:25.112Z,3.60
2019-01-12T23:45:26.116Z,3.00
2019-01-12T23:47:27.107Z,2.40
2019-01-12T23:49:28.359Z,3.27
2019-01-12T23:51:29.366Z,3.52
2019-01-12T23:53:30.357Z,3.10
2019-01-12T23:55:38.253Z,3.95
